createdAt,value
2022-08-14T00:01:54.821Z,99267.31
2022-08-14T00:04:34.741Z,99275.97
2022-08-14T00:07:10.592Z,99272.56
2022-08-14T00:09:55.161Z,99263.84
2022-08-14T00:12:34.098Z,99254.81
2022-08-14T00:15:21.775Z,99258.06
2022-08-14T00:17:53.266Z,99264.72
2022-08-14T00:20:23.995Z,99260.06
2022-08-14T00:23:12.182Z,99257.22
2022-08-14T00:25:43.931Z,99257.50
2022-08-14T00:28:29.088Z,99251.03
2022-08-14T00:31:00.563Z,99250.00
2022-08-14T00:33:51.038Z,99247.47
2022-08-14T00:36:35.992Z,99242.50
2022-08-14T00:39:06.650Z,99253.97
2022-08-14T00:41:39.184Z,99245.94
2022-08-14T00:44:07.369Z,99239.94
2022-08-14T00:46:37.729Z,99245.63
2022-08-14T00:49:06.194Z,99242.72
2022-08-14T00:51:37.896Z,99240.78
2022-08-14T00:54:11.134Z,99233.84
2022-08-14T00:56:55.220Z,99238.13
2022-08-14T00:59:28.447Z,99242.16
2022-08-14T01:01:58.272Z,99243.12
2022-08-14T01:04:38.188Z,99243.28
2022-08-14T01:07:19.777Z,99245.03
2022-08-14T01:09:53.196Z,99239.81
2022-08-14T01:12:27.040Z,99246.75
2022-08-14T01:14:59.119Z,99249.69
2022-08-14T01:17:49.785Z,99254.25
2022-08-14T01:20:39.577Z,99249.13
2022-08-14T01:23:16.461Z,99257.25
2022-08-14T01:25:48.762Z,99245.69
2022-08-14T01:28:34.298Z,99242.88
2022-08-14T01:31:08.597Z,99252.13
2022-08-14T01:33:44.697Z,99247.06
2022-08-14T01:36:27.986Z,99251.19
2022-08-14T01:38:58.993Z,99250.72
2022-08-14T01:41:30.103Z,99262.47
2022-08-14T01:44:01.660Z,99265.00
2022-08-14T01:46:36.653Z,99262.13
2022-08-14T01:49:10.044Z,99266.91
2022-08-14T01:51:39.309Z,99264.59
2022-08-14T01:54:11.129Z,99257.59
2022-08-14T01:56:42.844Z,99259.16
2022-08-14T01:59:18.526Z,99256.94
2022-08-14T02:01:58.692Z,99258.09
2022-08-14T02:04:54.804Z,99258.88
2022-08-14T02:07:34.280Z,99256.13
2022-08-14T02:10:13.116Z,99259.72
2022-08-14T02:12:46.189Z,99257.69
2022-08-14T02:15:22.063Z,99263.66
2022-08-14T02:17:50.136Z,99264.19
2022-08-14T02:20:23.801Z,99266.94
2022-08-14T02:22:54.500Z,99259.63
2022-08-14T02:25:23.435Z,99263.16
2022-08-14T02:28:23.643Z,99263.41
2022-08-14T02:30:44.616Z,99265.31
2022-08-14T02:33:12.809Z,99252.16
2022-08-14T02:35:43.347Z,99252.13
2022-08-14T02:38:11.893Z,99252.22
2022-08-14T02:40:58.622Z,99248.88
2022-08-14T02:43:36.447Z,99257.41
2022-08-14T02:46:09.453Z,99259.38
2022-08-14T02:49:04.066Z,99258.34
2022-08-14T02:51:30.268Z,99259.03
2022-08-14T02:53:58.491Z,99269.75
2022-08-14T02:56:29.968Z,99262.50
2022-08-14T02:59:17.118Z,99263.94
2022-08-14T03:01:50.981Z,99264.88
2022-08-14T03:04:22.932Z,99261.63
2022-08-14T03:06:58.239Z,99267.44
2022-08-14T03:10:25.089Z,99265.72
2022-08-14T03:12:32.467Z,99254.47
2022-08-14T03:15:13.949Z,99271.53
2022-08-14T03:17:57.807Z,99273.34
2022-08-14T03:20:28.692Z,99265.31
2022-08-14T03:22:59.382Z,99269.13
2022-08-14T03:25:33.275Z,99267.00
2022-08-14T03:28:07.105Z,99267.78
2022-08-14T03:30:39.014Z,99264.94
2022-08-14T03:33:10.954Z,99274.50
2022-08-14T03:36:05.552Z,99268.72
2022-08-14T03:39:14.472Z,99270.69
2022-08-14T03:41:18.212Z,99274.59
2022-08-14T03:43:57.007Z,99269.72
2022-08-14T03:46:38.753Z,99262.72
2022-08-14T03:49:14.016Z,99266.56
2022-08-14T03:51:51.975Z,99272.47
2022-08-14T03:54:21.271Z,99268.38
2022-08-14T03:56:50.181Z,99269.31
2022-08-14T03:59:18.281Z,99263.16
2022-08-14T04:02:01.668Z,99272.38
2022-08-14T04:04:31.398Z,99270.94
2022-08-14T04:07:00.435Z,99272.31
2022-08-14T04:09:27.851Z,99268.09
2022-08-14T04:11:56.187Z,99273.50
2022-08-14T04:14:25.407Z,99274.47
2022-08-14T04:16:52.827Z,99275.94
2022-08-14T04:19:23.880Z,99279.91
2022-08-14T04:22:02.349Z,99279.81
2022-08-14T04:24:38.002Z,99274.97
2022-08-14T04:27:10.202Z,99286.81
2022-08-14T04:29:45.091Z,99277.66
2022-08-14T04:33:02.396Z,99284.34
2022-08-14T04:35:01.295Z,99287.59
2022-08-14T04:37:53.954Z,99287.53
2022-08-14T04:40:40.773Z,99288.28
2022-08-14T04:43:32.469Z,99291.00
2022-08-14T04:46:56.110Z,99295.13
2022-08-14T04:49:07.947Z,99289.47
2022-08-14T04:51:46.359Z,99283.00
2022-08-14T04:54:13.965Z,99281.28
2022-08-14T04:56:44.330Z,99281.44
2022-08-14T04:59:12.803Z,99275.22
2022-08-14T05:01:47.806Z,99280.34
2022-08-14T05:04:21.752Z,99290.59
2022-08-14T05:06:53.537Z,99291.50
2022-08-14T05:09:23.124Z,99285.16
2022-08-14T05:11:51.464Z,99288.41
2022-08-14T05:14:45.357Z,99288.06
2022-08-14T05:17:11.875Z,99283.06
2022-08-14T05:19:44.379Z,99285.25
2022-08-14T05:22:16.640Z,99287.34
2022-08-14T05:24:51.753Z,99278.75
2022-08-14T05:27:22.568Z,99282.97
2022-08-14T05:29:53.005Z,99277.47
2022-08-14T05:32:21.157Z,99286.13
2022-08-14T05:34:48.507Z,99283.25
2022-08-14T05:37:15.847Z,99277.50
2022-08-14T05:39:43.755Z,99283.06
2022-08-14T05:42:22.079Z,99290.97
2022-08-14T05:44:55.761Z,99287.56
2022-08-14T05:47:24.270Z,99288.69
2022-08-14T05:49:59.793Z,99285.81
2022-08-14T05:52:38.942Z,99287.97
2022-08-14T05:55:09.300Z,99287.84
2022-08-14T05:57:53.929Z,99288.81
2022-08-14T06:00:29.891Z,99295.38
2022-08-14T06:03:00.541Z,99295.62
2022-08-14T06:05:29.193Z,99285.03
2022-08-14T06:08:00.452Z,99290.81
2022-08-14T06:10:29.985Z,99288.28
2022-08-14T06:12:58.567Z,99279.59
2022-08-14T06:15:29.999Z,99285.44
2022-08-14T06:18:00.558Z,99284.28
2022-08-14T06:20:30.183Z,99279.75
2022-08-14T06:22:59.229Z,99274.22
2022-08-14T06:25:27.041Z,99273.28
2022-08-14T06:27:55.863Z,99277.94
2022-08-14T06:30:30.231Z,99270.81
2022-08-14T06:33:15.785Z,99266.16
2022-08-14T06:35:43.905Z,99266.47
2022-08-14T06:38:17.528Z,99274.28
2022-08-14T06:40:46.099Z,99268.66
2022-08-14T06:43:15.491Z,99266.75
2022-08-14T06:45:50.093Z,99270.88
2022-08-14T06:48:23.862Z,99261.19
2022-08-14T06:50:53.762Z,99258.03
2022-08-14T06:53:21.766Z,99256.69
2022-08-14T06:55:58.066Z,99254.56
2022-08-14T06:58:30.810Z,99253.69
2022-08-14T07:01:24.942Z,99248.19
2022-08-14T07:04:23.676Z,99248.13
2022-08-14T07:06:55.530Z,99251.75
2022-08-14T07:09:27.967Z,99246.78
2022-08-14T07:11:56.374Z,99239.63
2022-08-14T07:14:25.239Z,99244.53
2022-08-14T07:16:53.914Z,99239.59
2022-08-14T07:19:21.523Z,99249.47
2022-08-14T07:21:50.266Z,99250.12
2022-08-14T07:24:21.969Z,99246.91
2022-08-14T07:26:53.971Z,99244.28
2022-08-14T07:29:26.023Z,99247.03
2022-08-14T07:31:54.066Z,99243.00
2022-08-14T07:34:36.480Z,99249.66
2022-08-14T07:37:08.641Z,99253.50
2022-08-14T07:39:37.327Z,99239.37
2022-08-14T07:42:06.768Z,99246.81
2022-08-14T07:44:45.886Z,99242.25
2022-08-14T07:47:16.762Z,99242.72
2022-08-14T07:49:55.551Z,99242.72
2022-08-14T07:52:30.498Z,99249.56
2022-08-14T07:55:00.383Z,99237.09
2022-08-14T07:57:28.175Z,99238.84
2022-08-14T07:59:55.519Z,99229.47
2022-08-14T08:02:23.877Z,99235.44
2022-08-14T08:04:59.448Z,99234.84
2022-08-14T08:07:30.023Z,99235.56
2022-08-14T08:10:00.901Z,99229.47
2022-08-14T08:12:32.313Z,99241.31
2022-08-14T08:15:07.935Z,99237.09
2022-08-14T08:17:53.539Z,99242.19
2022-08-14T08:20:27.784Z,99230.63
2022-08-14T08:23:00.654Z,99231.03
2022-08-14T08:25:40.074Z,99236.97
2022-08-14T08:28:25.056Z,99230.87
2022-08-14T08:30:56.997Z,99221.72
2022-08-14T08:33:32.101Z,99221.88
2022-08-14T08:36:03.474Z,99222.72
2022-08-14T08:39:18.185Z,99226.97
2022-08-14T08:41:18.639Z,99220.72
2022-08-14T08:43:47.051Z,99223.22
2022-08-14T08:46:23.609Z,99219.38
2022-08-14T08:51:33.488Z,99216.37
2022-08-14T08:54:15.364Z,99225.88
2022-08-14T08:56:52.059Z,99219.22
2022-08-14T08:59:20.908Z,99213.00
2022-08-14T09:02:10.643Z,99209.44
2022-08-14T09:04:45.884Z,99197.22
2022-08-14T09:07:28.014Z,99197.56
2022-08-14T09:09:58.884Z,99198.13
2022-08-14T09:12:32.362Z,99204.19
2022-08-14T09:15:02.416Z,99205.69
2022-08-14T09:17:29.947Z,99195.72
2022-08-14T09:20:02.174Z,99194.97
2022-08-14T09:22:34.951Z,99197.44
2022-08-14T09:25:07.642Z,99193.09
2022-08-14T09:27:37.795Z,99191.72
2022-08-14T09:30:30.723Z,99194.09
2022-08-14T09:33:15.738Z,99185.78
2022-08-14T09:35:57.199Z,99187.97
2022-08-14T09:38:36.438Z,99184.03
2022-08-14T09:41:23.963Z,99184.22
2022-08-14T09:44:21.466Z,99178.81
2022-08-14T09:46:53.975Z,99178.00
2022-08-14T09:49:40.041Z,99173.75
2022-08-14T09:52:33.455Z,99174.28
2022-08-14T09:55:02.836Z,99167.44
2022-08-14T09:57:31.542Z,99160.06
2022-08-14T09:59:59.134Z,99163.44
2022-08-14T10:02:45.559Z,99164.44
2022-08-14T10:05:13.962Z,99167.59
2022-08-14T10:07:53.651Z,99166.00
2022-08-14T10:10:35.547Z,99165.28
2022-08-14T10:13:07.138Z,99164.56
2022-08-14T10:15:45.875Z,99164.91
2022-08-14T10:18:18.308Z,99159.28
2022-08-14T10:21:00.859Z,99169.09
2022-08-14T10:23:40.370Z,99162.87
2022-08-14T10:26:08.851Z,99160.56
2022-08-14T10:29:17.541Z,99156.19
2022-08-14T10:31:43.260Z,99167.75
2022-08-14T10:34:18.317Z,99154.25
2022-08-14T10:36:50.169Z,99156.91
2022-08-14T10:39:29.949Z,99159.78
2022-08-14T10:42:16.442Z,99145.75
2022-08-14T10:44:49.008Z,99148.97
2022-08-14T10:47:41.385Z,99143.19
2022-08-14T10:50:12.126Z,99159.50
2022-08-14T10:52:43.834Z,99161.22
2022-08-14T10:55:16.453Z,99163.09
2022-08-14T10:58:01.946Z,99145.91
2022-08-14T11:00:35.538Z,99144.03
2022-08-14T11:03:11.013Z,99142.88
2022-08-14T11:05:47.334Z,99139.31
2022-08-14T11:08:17.692Z,99132.56
2022-08-14T11:10:52.685Z,99141.84
2022-08-14T11:13:24.103Z,99125.53
2022-08-14T11:15:52.653Z,99134.47
2022-08-14T11:18:32.303Z,99123.00
2022-08-14T11:21:06.527Z,99121.50
2022-08-14T11:23:37.902Z,99117.94
2022-08-14T11:26:08.016Z,99120.12
2022-08-14T11:28:47.117Z,99111.34
2022-08-14T11:31:23.201Z,99105.75
2022-08-14T11:33:57.795Z,99106.78
2022-08-14T11:36:35.184Z,99103.72
2022-08-14T11:39:34.774Z,99097.50
2022-08-14T11:42:55.326Z,99096.34
2022-08-14T11:45:00.350Z,99092.44
2022-08-14T11:47:35.094Z,99085.50
2022-08-14T11:50:13.251Z,99081.81
2022-08-14T11:52:40.788Z,99076.25
2022-08-14T11:55:12.772Z,99074.56
2022-08-14T11:57:41.491Z,99076.41
2022-08-14T12:00:19.741Z,99069.13
2022-08-14T12:03:02.965Z,99069.81
2022-08-14T12:05:39.651Z,99063.94
2022-08-14T12:08:11.106Z,99067.09
2022-08-14T12:10:43.454Z,99057.00
2022-08-14T12:13:19.128Z,99060.22
2022-08-14T12:15:57.567Z,99058.16
2022-08-14T12:18:35.853Z,99055.16
2022-08-14T12:21:19.620Z,99057.16
2022-08-14T12:23:50.375Z,99053.44
2022-08-14T12:26:39.302Z,99054.09
2022-08-14T12:29:14.453Z,99043.28
2022-08-14T12:31:47.414Z,99045.66
2022-08-14T12:34:22.755Z,99041.25
2022-08-14T12:37:05.586Z,99034.53
2022-08-14T12:39:40.123Z,99046.44
2022-08-14T12:42:08.067Z,99038.53
2022-08-14T12:44:38.279Z,99038.53
2022-08-14T12:47:15.161Z,99040.94
2022-08-14T12:49:54.248Z,99035.75
2022-08-14T12:52:41.535Z,99038.56
2022-08-14T12:55:17.654Z,99031.72
2022-08-14T12:57:49.388Z,99030.44
2022-08-14T13:00:25.446Z,99030.09
2022-08-14T13:02:55.809Z,99022.69
2022-08-14T13:05:30.122Z,99023.06
2022-08-14T13:07:59.129Z,99019.69
2022-08-14T13:10:46.909Z,99018.87
2022-08-14T13:13:17.552Z,99019.06
2022-08-14T13:15:47.749Z,99014.62
2022-08-14T13:18:17.019Z,99020.34
2022-08-14T13:20:51.477Z,99018.97
2022-08-14T13:23:30.691Z,99022.03
2022-08-14T13:26:00.858Z,99011.75
2022-08-14T13:28:30.296Z,99014.41
2022-08-14T13:31:11.331Z,99010.50
2022-08-14T13:33:40.779Z,99014.56
2022-08-14T13:36:23.628Z,99016.59
2022-08-14T13:38:53.654Z,99010.16
2022-08-14T13:41:31.546Z,99008.97
2022-08-14T13:44:00.586Z,99001.66
2022-08-14T13:46:28.415Z,98997.28
2022-08-14T13:48:57.640Z,99004.00
2022-08-14T13:51:32.091Z,99003.06
2022-08-14T13:54:10.803Z,99001.56
2022-08-14T13:56:40.420Z,98986.97
2022-08-14T13:59:09.194Z,98988.31
2022-08-14T14:01:39.203Z,98985.75
2022-08-14T14:04:19.322Z,98987.41
2022-08-14T14:06:49.779Z,98982.06
2022-08-14T14:09:27.147Z,98976.00
2022-08-14T14:12:00.522Z,98974.97
2022-08-14T14:14:29.731Z,98970.91
2022-08-14T14:17:13.700Z,98962.47
2022-08-14T14:19:46.400Z,98958.47
2022-08-14T14:23:00.938Z,98958.94
2022-08-14T14:25:06.010Z,98956.44
2022-08-14T14:27:41.516Z,98965.37
2022-08-14T14:30:31.961Z,98961.88
2022-08-14T14:33:05.150Z,98954.81
2022-08-14T14:35:43.884Z,98957.78
2022-08-14T14:38:17.547Z,98953.91
2022-08-14T14:41:00.483Z,98949.72
2022-08-14T14:43:28.815Z,98947.72
2022-08-14T14:45:56.614Z,98951.09
2022-08-14T14:48:28.180Z,98940.13
2022-08-14T14:50:58.368Z,98940.69
2022-08-14T14:53:28.345Z,98935.50
2022-08-14T14:56:47.200Z,98937.38
2022-08-14T14:58:46.840Z,98929.75
2022-08-14T15:01:17.421Z,98928.94
2022-08-14T15:03:46.059Z,98929.62
2022-08-14T15:06:17.679Z,98924.22
2022-08-14T15:08:55.948Z,98922.34
2022-08-14T15:11:25.398Z,98928.44
2022-08-14T15:13:53.514Z,98927.28
2022-08-14T15:16:21.431Z,98929.09
2022-08-14T15:18:48.993Z,98930.28
2022-08-14T15:21:16.924Z,98925.56
2022-08-14T15:23:46.057Z,98927.59
2022-08-14T15:26:23.981Z,98926.56
2022-08-14T15:29:03.221Z,98933.69
2022-08-14T15:31:37.103Z,98931.28
2022-08-14T15:34:42.191Z,98934.94
2022-08-14T15:36:59.889Z,98936.84
2022-08-14T15:39:29.499Z,98931.22
2022-08-14T15:42:02.593Z,98934.66
2022-08-14T15:44:34.319Z,98931.28
2022-08-14T15:47:06.982Z,98938.97
2022-08-14T15:49:37.219Z,98929.91
2022-08-14T15:52:07.196Z,98929.53
2022-08-14T15:54:35.555Z,98930.06
2022-08-14T15:57:09.181Z,98933.87
2022-08-14T15:59:56.822Z,98932.34
2022-08-14T16:02:27.839Z,98928.50
2022-08-14T16:04:56.243Z,98928.31
2022-08-14T16:07:25.235Z,98933.47
2022-08-14T16:10:25.367Z,98932.06
2022-08-14T16:12:47.558Z,98932.97
2022-08-14T16:15:16.829Z,98934.84
2022-08-14T16:17:46.554Z,98932.00
2022-08-14T16:20:42.348Z,98925.31
2022-08-14T16:23:10.384Z,98929.81
2022-08-14T16:25:42.245Z,98929.97
2022-08-14T16:28:27.046Z,98928.16
2022-08-14T16:30:55.199Z,98929.97
2022-08-14T16:33:56.831Z,98930.09
2022-08-14T16:36:29.940Z,98937.94
2022-08-14T16:39:04.475Z,98939.16
2022-08-14T16:41:32.008Z,98940.13
2022-08-14T16:44:01.723Z,98947.34
2022-08-14T16:46:32.458Z,98949.63
2022-08-14T16:49:01.925Z,98949.41
2022-08-14T16:51:30.924Z,98956.66
2022-08-14T16:54:04.725Z,98951.66
2022-08-14T16:56:48.592Z,98949.72
2022-08-14T16:59:20.198Z,98949.50
2022-08-14T17:02:00.760Z,98943.72
2022-08-14T17:04:34.651Z,98954.09
2022-08-14T17:07:15.338Z,98966.94
2022-08-14T17:09:52.963Z,98952.78
2022-08-14T17:12:35.232Z,98957.47
2022-08-14T17:15:15.022Z,98957.56
2022-08-14T17:17:57.917Z,98962.63
2022-08-14T17:20:53.971Z,98962.75
2022-08-14T17:23:17.071Z,98969.47
2022-08-14T17:25:50.903Z,98971.59
2022-08-14T17:28:51.038Z,98973.97
2022-08-14T17:31:08.432Z,98976.09
2022-08-14T17:33:44.132Z,98982.72
2022-08-14T17:36:21.419Z,98976.94
2022-08-14T17:39:13.378Z,98979.09
2022-08-14T17:41:47.684Z,98979.09
2022-08-14T17:44:45.115Z,98993.50
2022-08-14T17:47:18.207Z,98985.03
2022-08-14T17:49:52.158Z,98987.34
2022-08-14T17:52:34.280Z,98984.81
2022-08-14T17:55:06.718Z,98989.66
2022-08-14T17:57:35.195Z,98984.56
2022-08-14T18:00:04.073Z,98987.66
2022-08-14T18:02:33.800Z,98976.38
2022-08-14T18:05:03.128Z,98990.66
2022-08-14T18:07:59.342Z,98984.47
2022-08-14T18:10:52.009Z,98983.03
2022-08-14T18:13:10.744Z,98984.34
2022-08-14T18:15:44.962Z,98985.19
2022-08-14T18:18:19.390Z,98969.91
2022-08-14T18:21:39.556Z,98971.06
2022-08-14T18:23:42.162Z,98975.00
2022-08-14T18:26:37.540Z,98969.38
2022-08-14T18:28:59.186Z,98976.72
2022-08-14T18:31:26.686Z,98973.78
2022-08-14T18:34:31.261Z,98980.91
2022-08-14T18:37:13.856Z,98976.25
2022-08-14T18:40:01.883Z,98972.72
2022-08-14T18:42:40.583Z,98973.28
2022-08-14T18:45:28.928Z,98979.31
2022-08-14T18:48:33.556Z,98973.78
2022-08-14T18:51:13.244Z,98973.72
2022-08-14T18:53:52.088Z,98976.03
2022-08-14T18:56:55.074Z,98978.25
2022-08-14T18:59:43.237Z,98979.75
2022-08-14T19:02:30.571Z,98975.94
2022-08-14T19:05:02.343Z,98979.56
2022-08-14T19:07:33.428Z,98987.87
2022-08-14T19:10:06.636Z,98990.25
2022-08-14T19:12:52.953Z,98987.22
2022-08-14T19:15:28.945Z,98986.50
2022-08-14T19:18:13.814Z,98992.34
2022-08-14T19:20:46.479Z,98993.59
2022-08-14T19:23:21.285Z,98997.38
2022-08-14T19:25:57.095Z,98993.13
2022-08-14T19:28:33.527Z,98991.12
2022-08-14T19:31:26.082Z,98995.16
2022-08-14T19:34:07.172Z,98988.97
2022-08-14T19:37:04.295Z,98987.22
2022-08-14T19:39:53.244Z,98988.78
2022-08-14T19:42:30.598Z,98991.78
2022-08-14T19:44:58.371Z,98992.94
2022-08-14T19:47:38.795Z,98993.56
2022-08-14T19:50:38.283Z,98985.06
2022-08-14T19:53:11.111Z,98987.53
2022-08-14T19:55:45.723Z,98985.47
2022-08-14T19:58:13.683Z,98993.25
2022-08-14T20:00:51.989Z,98987.19
2022-08-14T20:03:24.131Z,98990.00
2022-08-14T20:06:05.516Z,98985.50
2022-08-14T20:11:00.561Z,98981.28
2022-08-14T20:12:02.255Z,98991.62
2022-08-14T20:14:27.970Z,98987.53
2022-08-14T20:17:06.392Z,98986.56
2022-08-14T20:19:37.617Z,98985.63
2022-08-14T20:22:36.785Z,98996.88
2022-08-14T20:25:12.087Z,98996.16
2022-08-14T20:27:44.109Z,98996.03
2022-08-14T20:30:34.725Z,98993.38
2022-08-14T20:33:07.495Z,98985.97
2022-08-14T20:35:42.152Z,98986.25
2022-08-14T20:38:33.329Z,98988.19
2022-08-14T20:41:06.552Z,98987.94
2022-08-14T20:43:55.965Z,98987.19
2022-08-14T20:46:31.021Z,98987.34
2022-08-14T20:49:03.546Z,98989.75
2022-08-14T20:51:47.521Z,98988.78
2022-08-14T20:54:34.721Z,98993.88
2022-08-14T20:57:09.274Z,98989.53
2022-08-14T20:59:43.306Z,98992.88
2022-08-14T21:02:34.770Z,98993.72
2022-08-14T21:05:19.615Z,98995.41
2022-08-14T21:07:50.853Z,98999.78
2022-08-14T21:10:35.280Z,99000.63
2022-08-14T21:13:25.907Z,99001.97
2022-08-14T21:15:57.915Z,99004.50
2022-08-14T21:18:31.875Z,99009.94
2022-08-14T21:21:06.924Z,99014.78
2022-08-14T21:23:54.114Z,99014.66
2022-08-14T21:26:51.242Z,99008.38
2022-08-14T21:29:19.029Z,99010.03
2022-08-14T21:31:55.596Z,99020.81
2022-08-14T21:34:31.643Z,99016.81
2022-08-14T21:37:07.785Z,99013.56
2022-08-14T21:39:38.015Z,99013.41
2022-08-14T21:42:06.165Z,99012.19
2022-08-14T21:44:42.740Z,99013.13
2022-08-14T21:47:12.692Z,99008.78
2022-08-14T21:49:43.170Z,99005.41
2022-08-14T21:52:49.367Z,99013.56
2022-08-14T21:55:09.312Z,99008.06
2022-08-14T21:58:44.501Z,99011.94
2022-08-14T22:00:39.776Z,99019.66
2022-08-14T22:03:19.099Z,99009.50
2022-08-14T22:05:53.383Z,99003.88
2022-08-14T22:08:26.986Z,99009.44
2022-08-14T22:10:55.168Z,99009.19
2022-08-14T22:13:26.437Z,99005.81
2022-08-14T22:15:59.725Z,99011.97
2022-08-14T22:18:29.731Z,99006.50
2022-08-14T22:20:57.522Z,99006.72
2022-08-14T22:23:26.097Z,99000.44
2022-08-14T22:25:55.059Z,99008.66
2022-08-14T22:28:33.159Z,99003.22
2022-08-14T22:31:10.909Z,99002.25
2022-08-14T22:33:39.247Z,99004.19
2022-08-14T22:36:27.408Z,98995.97
2022-08-14T22:39:01.702Z,98995.56
2022-08-14T22:41:42.169Z,98994.84
2022-08-14T22:44:14.675Z,98998.00
2022-08-14T22:46:43.271Z,98990.94
2022-08-14T22:49:16.216Z,98995.31
2022-08-14T22:51:58.956Z,98993.16
2022-08-14T22:54:52.638Z,98988.16
2022-08-14T22:57:15.949Z,98988.41
2022-08-14T22:59:43.403Z,98980.16
2022-08-14T23:02:22.222Z,98990.09
2022-08-14T23:04:59.287Z,98986.69
2022-08-14T23:08:56.774Z,98992.25
2022-08-14T23:10:31.775Z,98983.31
2022-08-14T23:13:03.586Z,98980.63
2022-08-14T23:15:32.518Z,98984.25
2022-08-14T23:18:03.281Z,98986.91
2022-08-14T23:20:33.663Z,98985.88
2022-08-14T23:23:11.773Z,98979.19
2022-08-14T23:25:58.388Z,98979.28
2022-08-14T23:28:33.633Z,98986.53
2022-08-14T23:31:34.331Z,98975.66
2022-08-14T23:34:08.716Z,98971.97
2022-08-14T23:36:53.671Z,98971.34
2022-08-14T23:39:30.173Z,98962.84
2022-08-14T23:42:09.167Z,98968.31
2022-08-14T23:44:38.890Z,98964.31
2022-08-14T23:47:11.598Z,98966.16
2022-08-14T23:50:01.297Z,98967.31
2022-08-14T23:52:51.605Z,98961.56
2022-08-14T23:55:34.308Z,98968.03
2022-08-14T23:58:02.601Z,98965.91
